KBIF/BIF METAR and TAF weather

Enter ICAO airport designator
Station Type Date Time Source
KBIF METAR 2021/05/11 16:58 UTC NOAA

KBIF 111658Z AUTO 27016G21KT 10SM CLR 28/M06 A2999 RMK AO2 SLP087 T02751064 $


Station Type Date Time Source
KBIF Decoded METAR 2021/05/11 16:58 UTC NOAA

Biggs Army Air Field / Ft. Bliss, TX, United States (KBIF) 31-51N 106-23W
May 11, 2021 - 12:58 PM EDT / 2021.05.11 1658 UTC
Wind: from the W (270 degrees) at 18 MPH (16 KT) gusting to 24 MPH (21 KT):0
Visibility: 10 mile(s):0
Sky conditions: clear
Temperature: 81.5 F (27.5 C)
Dew Point: 20.5 F (-6.4 C)
Relative Humidity: 10%
Pressure (altimeter): 29.99 in. Hg (1015 hPa)
ob: KBIF 111658Z AUTO 27016G21KT 10SM CLR 28/M06 A2999 RMK AO2 SLP087 T02751064
cycle: 17

Station Type Date Time Source
KBIF TAF 2021/05/11 14:04 UTC NOAA

TAF KBIF 111401Z 1114/1220 25010G20KT 9999 SKC 510009 QNH2989INS
TEMPO 1121/1124 25015G25KT 520009
BECMG 1201/1202 25012KT 9999 SKC QNH2989INS
BECMG 1204/1205 12012KT 9999 SKC QNH2995INS
BECMG 1214/1215 10015G25KT 9999 FEW020 520009 QNH3012INS TX30/1122Z TN13/1212Z

Example: see airport list